aviador You're here:

CYMO Decoded Metar

MOOSONEE in ON, CANADA
Report Time2017-11-24 01:00:00
UTC Time2017-11-24 02:11:01
Flight Rules Old
Wind250° at 05 kt
W.Decomp.*RWY 24: 4.6 kt HW 2.0 kt RCW
RWY 32: 2.7 kt HW 4.2 kt LCW
W.Rank250° ranks 17
Current wind is below 250° avg. (8.2)
Visibility9999 m
Phenomena:N/A
Clouds:Few 032 Hf
Expected CloudBase > 800 ft AGL from Temp-Dew spread
CeilingNone
Temp-15°C (ISA -30)
Dew Point-17°C (85% RH)
AAT-20.3°C
QNH1009 hPa
Density Alt-3,596 ft
Elevation33 ft
Report Wrong Elevation
Raw Report
CYMO 240100Z AUTO 25005KT 9SM FEW032 M15/M17 A2980 RMK SLP092=

Extra information for CYMO:More info

Metar Taf Metar & Taf Last 4 Metars F.Rules Stats Wind Profile Meteogram Temp Stats Airport Information Weather charts Add Link Nearby VenuesMetar ALERT Operation Metar Decoded Social comments